Bradford, ME (04410)

8:20 PM EDT on July 27, 2016 (GMT -0400)
Main St. Milo | | Change Station

Elev 300 ft 45.25 °N, 68.99 °W | Updated 30 seconds ago

Mostly Cloudy
Mostly Cloudy
75.7 °F
Feels Like 77 °F
N
0.0
Wind Variable Wind from ESE
Gusts 0.0 mph

Today
High -- | Low -- °F
--% Chance of Precip.
Yesterday
High -- | Low -- °F
Precip. -- in
Pressure 29.84 in
Visibility 10.0 miles
Clouds Mostly Cloudy 25000 ft
Heat Index 77 °F
Dew Point 66 °F
Humidity 71%
Rainfall 0.00 in
Snow Depth Not available.
5:15 AM 8:07 PM
Last Quarter, 38% visible
METAR KBGR 272353Z 16005KT 10SM BKN250 26/17 A2985 RMK AO2 SLP104 T02610172 10339 20261 50005
Pressure 29.84 in
Visibility 10.0 miles
Clouds Mostly Cloudy 25000 ft
Heat Index 77 °F
Dew Point 66 °F
Humidity 71%
Rainfall 0.00 in
Snow Depth Not available.
5:15 AM 8:07 PM
Last Quarter, 38% visible
METAR KBGR 272353Z 16005KT 10SM BKN250 26/17 A2985 RMK AO2 SLP104 T02610172 10339 20261 50005

10-Day Weather Forecast

Almanac

Astronomy

Jul. 27, 2016 Rise Set
Actual Time
Civil Twilight
Nautical Twilight
Astronomical Twilight
Moon
Length of Visible Light
Length of Day
Tomorrow will be .
, % of the Moon is Illuminated

Today's Extremes

State Highs State Lows

Community

WunderPhotos

Upload Photos

1,927,974 photos uploaded!

WunderBlog® & News

Nearby

Air Quality

  Air Quality AQ Index Pollutant
Not available.

Snow Depth

Station Depth Elevation

Earthquake Activity

City Distance Mag. Time & Date
Minimum magnitude displayed is 2.5.

Coastal Water Temperatures

Place Temperature

Stations

Nearby Weather Stations

Station Location Temp. Windchill Dew Point Humidity Wind Precip. Elev Updated Type
                   

Watches & Warnings

There are currently no watches in effect.